Time;durP1;ratioP1;P1;durP2;ratioP2;P2;SDS_P1;SDS_P2;PMS_P1;PMS_P2;Temp;Humidity;BMP_temperature;BMP_pressure;BME280_temperature;BME280_humidity;BME280_pressure;Samples;Min_cycle;Max_cycle;Signal;HPM_P1;HPM_P2
2022/08/26 00:01:16;;;;;;;11.80;6.83;;;25.50;99.90;;;;;;5104506;28;20424;-92
2022/08/26 00:03:42;;;;;;;10.30;6.17;;;25.40;99.90;;;;;;5104785;28;20431;-93
2022/08/26 00:06:08;;;;;;;11.13;6.50;;;25.40;99.90;;;;;;5120018;28;20463;-94
2022/08/26 00:08:34;;;;;;;12.40;6.37;;;25.30;99.90;;;;;;5102145;28;20454;-93
2022/08/26 00:11:00;;;;;;;12.30;6.77;;;25.30;99.90;;;;;;5101579;28;20290;-93
2022/08/26 00:13:26;;;;;;;7.70;6.90;;;25.30;99.90;;;;;;5101611;28;20268;-93
2022/08/26 00:15:52;;;;;;;13.17;6.83;;;25.20;99.90;;;;;;5101545;28;20940;-93
2022/08/26 00:18:19;;;;;;;11.20;6.20;;;25.20;99.90;;;;;;5103005;28;20183;-93
2022/08/26 00:20:45;;;;;;;10.27;6.87;;;25.20;99.90;;;;;;5117620;28;20514;-93
2022/08/26 00:23:11;;;;;;;8.40;6.77;;;25.10;99.90;;;;;;5099666;28;20515;-93
2022/08/26 00:25:37;;;;;;;9.80;6.50;;;25.10;99.90;;;;;;5099402;28;20462;-93
2022/08/26 00:28:04;;;;;;;10.10;6.67;;;25.00;99.90;;;;;;5099646;28;20629;-93
2022/08/26 00:30:33;;;;;;;9.27;6.07;;;25.00;99.90;;;;;;5099792;28;21008;-93
2022/08/26 00:33:00;;;;;;;17.90;6.73;;;25.00;99.90;;;;;;5100918;28;20447;-93
2022/08/26 00:35:28;;;;;;;10.67;5.97;;;24.90;99.90;;;;;;5120260;28;20439;-93
2022/08/26 00:37:55;;;;;;;13.50;6.77;;;24.90;99.90;;;;;;5100631;28;20428;-93
2022/08/26 00:40:31;;;;;;;15.37;6.97;;;24.90;99.90;;;;;;5118356;28;20423;-93
2022/08/26 00:42:58;;;;;;;10.27;6.53;;;24.90;99.90;;;;;;5101047;28;20431;-93
2022/08/26 00:45:24;;;;;;;13.50;6.47;;;24.80;99.90;;;;;;5101434;28;20428;-94
2022/08/26 00:47:54;;;;;;;10.07;7.00;;;24.80;99.90;;;;;;5101032;28;20430;-93
2022/08/26 00:50:25;;;;;;;15.00;6.33;;;24.80;99.90;;;;;;5109433;28;20239;-94
2022/08/26 00:52:52;;;;;;;7.97;6.33;;;24.70;99.90;;;;;;5128405;28;20396;-93
2022/08/26 00:55:27;;;;;;;21.73;6.70;;;24.70;99.90;;;;;;5119048;28;20538;-94
2022/08/26 00:57:53;;;;;;;13.77;6.40;;;24.70;99.90;;;;;;5099010;28;20789;-93
2022/08/26 01:00:26;;;;;;;8.77;6.50;;;24.70;99.90;;;;;;5098899;28;20438;-93
2022/08/26 01:02:54;;;;;;;11.50;6.43;;;24.60;99.90;;;;;;5098732;28;20782;-93
2022/08/26 01:05:20;;;;;;;10.17;6.73;;;24.60;99.90;;;;;;5116793;28;20443;-93
2022/08/26 01:07:46;;;;;;;10.03;5.93;;;24.60;99.90;;;;;;5117053;28;20416;-93
2022/08/26 01:10:17;;;;;;;12.07;6.67;;;24.60;99.90;;;;;;5099372;28;20195;-93
2022/08/26 01:12:51;;;;;;;11.40;6.50;;;24.50;99.90;;;;;;5098600;28;20190;-93
2022/08/26 01:15:25;;;;;;;11.93;6.40;;;24.50;99.90;;;;;;5117061;28;21060;-93
2022/08/26 01:17:51;;;;;;;10.60;7.00;;;24.50;99.90;;;;;;5099157;28;20436;-92
2022/08/26 01:20:38;;;;;;;8.00;5.83;;;24.50;99.90;;;;;;5098882;28;20431;-94
2022/08/26 01:23:10;;;;;;;8.00;5.93;;;24.40;99.90;;;;;;5099010;28;20471;-93
2022/08/26 01:25:42;;;;;;;10.20;6.20;;;24.40;99.90;;;;;;5116925;28;20415;-93
2022/08/26 01:28:20;;;;;;;9.33;5.90;;;24.40;99.90;;;;;;5117186;28;20976;-94
2022/08/26 01:30:47;;;;;;;11.70;7.27;;;24.30;99.90;;;;;;5099624;28;20483;-93
2022/08/26 01:33:17;;;;;;;12.07;7.23;;;24.30;99.90;;;;;;5099304;28;20470;-93
2022/08/26 01:35:44;;;;;;;7.60;5.87;;;24.30;99.90;;;;;;5101307;28;20440;-92
2022/08/26 01:38:10;;;;;;;8.70;5.13;;;24.30;99.90;;;;;;5103649;28;20434;-93
2022/08/26 01:40:37;;;;;;;7.27;5.60;;;24.20;99.90;;;;;;5100978;28;20614;-93
2022/08/26 01:43:06;;;;;;;13.53;6.13;;;24.20;99.90;;;;;;5100713;28;20435;-93
2022/08/26 01:45:34;;;;;;;12.33;6.37;;;24.20;99.90;;;;;;5099966;28;20434;-92
2022/08/26 01:48:03;;;;;;;21.70;6.60;;;24.20;99.90;;;;;;5101090;28;21004;-93
2022/08/26 01:50:34;;;;;;;12.73;6.37;;;24.10;99.90;;;;;;5118060;28;20466;-93
2022/08/26 01:53:07;;;;;;;12.93;5.90;;;24.10;99.90;;;;;;5109311;28;20475;-94
2022/08/26 01:55:35;;;;;;;9.13;5.70;;;24.10;99.90;;;;;;5097667;28;20440;-93
2022/08/26 01:58:06;;;;;;;16.40;5.97;;;24.00;99.90;;;;;;5097708;28;20438;-94
2022/08/26 02:00:34;;;;;;;12.73;5.40;;;24.00;99.90;;;;;;5097777;28;20434;-92
2022/08/26 02:03:15;;;;;;;11.33;5.87;;;24.00;99.90;;;;;;5115802;28;20910;-93
2022/08/26 02:05:52;;;;;;;12.30;5.60;;;24.00;99.90;;;;;;5115795;28;20424;-93
2022/08/26 02:08:19;;;;;;;11.43;5.50;;;23.90;99.90;;;;;;5097709;28;20426;-94
2022/08/26 02:10:46;;;;;;;7.73;5.70;;;23.90;99.90;;;;;;5097585;28;20434;-93
2022/08/26 02:13:12;;;;;;;12.70;5.80;;;23.90;99.90;;;;;;5097652;28;20466;-93
2022/08/26 02:15:41;;;;;;;9.13;5.80;;;23.90;99.90;;;;;;5115587;28;20450;-93
2022/08/26 02:18:09;;;;;;;13.43;5.63;;;23.90;99.90;;;;;;5097419;28;20414;-93
2022/08/26 02:20:35;;;;;;;9.90;4.73;;;23.80;99.90;;;;;;5097917;28;20435;-93
2022/08/26 02:23:01;;;;;;;11.40;5.67;;;23.80;99.90;;;;;;5099170;28;20479;-93
2022/08/26 02:25:50;;;;;;;10.53;5.27;;;23.80;99.90;;;;;;5099663;28;20435;-93
2022/08/26 02:28:17;;;;;;;6.47;4.40;;;23.80;99.90;;;;;;5102079;28;20434;-93
2022/08/26 02:30:44;;;;;;;14.50;5.10;;;23.70;99.90;;;;;;5099728;28;20429;-94
2022/08/26 02:33:10;;;;;;;12.00;5.40;;;23.70;99.90;;;;;;5104100;28;20505;-94
2022/08/26 02:35:36;;;;;;;12.93;5.70;;;23.70;99.90;;;;;;5131210;28;20418;-93
2022/08/26 02:38:04;;;;;;;11.50;4.87;;;23.70;99.90;;;;;;5117607;28;20415;-93
2022/08/26 02:40:33;;;;;;;13.03;5.40;;;23.60;99.90;;;;;;5097523;28;20431;-92
2022/08/26 02:42:58;;;;;;;8.27;5.40;;;23.60;99.90;;;;;;5115701;28;20414;-93
2022/08/26 02:45:26;;;;;;;7.80;5.07;;;23.60;99.90;;;;;;5097899;28;20449;-94
2022/08/26 02:47:52;;;;;;;6.80;5.27;;;23.60;99.90;;;;;;5115551;28;20198;-93
2022/08/26 02:50:18;;;;;;;11.67;5.17;;;23.60;99.90;;;;;;5115376;28;20477;-93
2022/08/26 02:52:43;;;;;;;7.90;5.50;;;23.60;99.90;;;;;;5097342;28;21029;-93
2022/08/26 02:55:09;;;;;;;7.50;5.67;;;23.50;99.90;;;;;;5115238;28;20236;-93
2022/08/26 02:57:35;;;;;;;9.13;4.70;;;23.50;99.90;;;;;;5097777;28;20186;-93
2022/08/26 03:00:01;;;;;;;13.27;5.50;;;23.50;99.90;;;;;;5115443;28;20195;-92
2022/08/26 03:02:27;;;;;;;7.03;5.00;;;23.50;99.90;;;;;;5115305;28;20177;-93
2022/08/26 03:04:53;;;;;;;7.00;4.90;;;23.50;99.90;;;;;;5115422;28;20991;-93
2022/08/26 03:07:19;;;;;;;9.00;5.60;;;23.40;99.90;;;;;;5115548;28;20427;-93
2022/08/26 03:09:45;;;;;;;10.83;5.47;;;23.40;99.90;;;;;;5115744;28;20657;-93
2022/08/26 03:12:11;;;;;;;8.83;5.20;;;23.40;99.90;;;;;;5098989;28;20188;-93
2022/08/26 03:14:37;;;;;;;8.93;4.80;;;23.40;99.90;;;;;;5102008;28;20509;-93
2022/08/26 03:17:06;;;;;;;8.40;5.53;;;23.40;99.90;;;;;;5100900;28;20426;-93
2022/08/26 03:19:32;;;;;;;10.90;5.50;;;23.40;99.90;;;;;;5097642;28;20434;-93
2022/08/26 03:21:58;;;;;;;9.00;5.00;;;23.40;99.90;;;;;;5097281;28;20793;-94
2022/08/26 03:24:25;;;;;;;14.07;6.27;;;23.40;99.90;;;;;;5115757;28;20609;-93
2022/08/26 03:26:51;;;;;;;14.63;5.87;;;23.30;99.90;;;;;;5116461;28;20402;-93
2022/08/26 03:32:02;;;;;;;9.43;5.20;;;23.30;99.90;;;;;;5117783;28;20233;-94
2022/08/26 03:34:28;;;;;;;9.70;5.70;;;23.30;99.90;;;;;;5098310;28;20548;-93
2022/08/26 03:36:54;;;;;;;14.10;5.43;;;23.30;99.90;;;;;;5102813;28;20405;-93
2022/08/26 03:39:19;;;;;;;11.00;5.33;;;23.30;99.90;;;;;;5102984;28;20194;-93
2022/08/26 03:41:45;;;;;;;10.53;5.70;;;23.30;99.90;;;;;;5105899;28;20272;-94
2022/08/26 03:44:11;;;;;;;9.70;5.37;;;23.20;99.90;;;;;;5104108;28;20198;-93
2022/08/26 03:46:38;;;;;;;9.17;6.03;;;23.20;99.90;;;;;;5110098;28;20178;-94
2022/08/26 03:49:05;;;;;;;14.53;5.57;;;23.20;99.90;;;;;;5113794;28;20430;-93
2022/08/26 03:51:31;;;;;;;15.67;6.87;;;23.20;99.90;;;;;;5104723;28;20414;-94
2022/08/26 03:53:59;;;;;;;11.70;5.97;;;23.10;99.90;;;;;;5128130;28;20483;-94
2022/08/26 03:56:26;;;;;;;10.67;6.80;;;23.10;99.90;;;;;;5099095;28;20418;-93
2022/08/26 03:58:52;;;;;;;10.47;5.50;;;23.10;99.90;;;;;;5118312;28;20500;-93
2022/08/26 04:01:18;;;;;;;11.97;5.77;;;23.10;99.90;;;;;;5100101;28;20408;-93
2022/08/26 04:03:56;;;;;;;8.60;5.10;;;23.10;99.90;;;;;;5100501;28;20420;-93
2022/08/26 04:06:27;;;;;;;11.00;5.00;;;23.10;99.90;;;;;;5085599;28;20418;-92
2022/08/26 04:08:56;;;;;;;9.47;5.80;;;23.00;99.90;;;;;;5079387;28;20525;-95
2022/08/26 04:11:27;;;;;;;7.63;5.40;;;23.00;99.90;;;;;;5080631;28;20824;-93
2022/08/26 04:13:53;;;;;;;9.87;5.73;;;23.00;99.90;;;;;;5090542;28;20493;-93
2022/08/26 04:16:19;;;;;;;9.43;4.97;;;23.00;99.90;;;;;;5095501;28;20417;-93
2022/08/26 04:18:44;;;;;;;10.97;5.00;;;23.00;99.90;;;;;;5097204;28;20808;-94
2022/08/26 04:21:11;;;;;;;9.93;5.00;;;23.00;99.90;;;;;;5081204;28;20662;-93
2022/08/26 04:23:37;;;;;;;10.17;5.10;;;23.00;99.90;;;;;;5086170;28;20185;-93
2022/08/26 04:26:02;;;;;;;15.30;6.23;;;23.00;99.90;;;;;;5104270;28;20803;-94
2022/08/26 04:28:28;;;;;;;9.00;4.90;;;23.00;99.90;;;;;;5097898;28;20427;-93
2022/08/26 04:30:54;;;;;;;9.20;5.13;;;23.00;99.90;;;;;;5088366;28;20227;-93
2022/08/26 04:33:20;;;;;;;6.67;4.53;;;23.00;99.90;;;;;;5077449;28;20220;-94
2022/08/26 04:35:46;;;;;;;10.53;4.90;;;23.00;99.90;;;;;;5078680;28;20465;-93
2022/08/26 04:38:13;;;;;;;10.30;5.33;;;23.00;99.90;;;;;;5094352;28;20255;-93
2022/08/26 04:40:43;;;;;;;9.23;5.00;;;23.00;99.90;;;;;;5078681;28;20426;-94
2022/08/26 04:43:09;;;;;;;14.33;7.00;;;23.00;99.90;;;;;;5102907;28;20516;-93
2022/08/26 04:45:36;;;;;;;8.53;4.67;;;23.10;99.90;;;;;;5117380;28;20451;-93
2022/08/26 04:48:02;;;;;;;12.07;6.60;;;23.10;99.90;;;;;;5098043;28;20611;-93
2022/08/26 04:50:28;;;;;;;7.70;4.70;;;23.10;99.90;;;;;;5100193;28;20464;-93
2022/08/26 04:52:54;;;;;;;9.47;5.00;;;23.10;99.90;;;;;;5077924;28;20922;-92
2022/08/26 04:55:20;;;;;;;12.43;5.20;;;23.10;99.90;;;;;;5078608;28;20563;-92
2022/08/26 04:57:46;;;;;;;10.40;5.23;;;23.20;99.90;;;;;;5093018;28;20535;-92
2022/08/26 05:00:13;;;;;;;16.53;5.70;;;23.20;99.90;;;;;;5098237;28;20960;-93
2022/08/26 05:02:39;;;;;;;9.23;5.83;;;23.20;99.90;;;;;;5078606;28;20445;-93
2022/08/26 05:05:06;;;;;;;8.73;6.00;;;23.30;99.90;;;;;;5079047;28;20576;-93
2022/08/26 05:07:34;;;;;;;12.70;5.60;;;23.30;99.90;;;;;;5079432;28;20942;-93
2022/08/26 05:10:00;;;;;;;10.70;4.60;;;23.30;99.90;;;;;;5078959;28;20463;-94
2022/08/26 05:12:28;;;;;;;9.90;4.63;;;23.30;99.90;;;;;;5080068;28;20433;-95
2022/08/26 05:14:53;;;;;;;12.53;5.07;;;23.40;99.90;;;;;;5087116;28;20497;-94
2022/08/26 05:17:19;;;;;;;13.50;4.60;;;23.40;99.90;;;;;;5088890;28;20824;-93
2022/08/26 05:19:45;;;;;;;6.40;5.03;;;23.40;99.90;;;;;;5078975;28;20238;-93
2022/08/26 05:22:12;;;;;;;11.70;5.93;;;23.50;99.90;;;;;;5079791;28;20193;-93
2022/08/26 05:24:38;;;;;;;6.43;4.63;;;23.50;99.90;;;;;;5079188;28;20445;-93
2022/08/26 05:27:04;;;;;;;8.90;5.40;;;23.50;99.90;;;;;;5078561;28;20426;-94
2022/08/26 05:29:29;;;;;;;13.37;4.97;;;23.50;99.90;;;;;;5086085;28;21311;-94
2022/08/26 05:31:55;;;;;;;11.43;6.60;;;23.60;99.90;;;;;;5101016;28;20506;-93
2022/08/26 05:34:21;;;;;;;9.33;4.70;;;23.60;99.90;;;;;;5079329;28;20226;-94
2022/08/26 05:36:47;;;;;;;12.27;5.73;;;23.60;99.90;;;;;;5076992;28;20255;-92
2022/08/26 05:39:13;;;;;;;10.03;5.70;;;23.70;99.90;;;;;;5093296;28;20443;-93
2022/08/26 05:41:40;;;;;;;19.40;13.43;;;23.70;99.90;;;;;;5077866;28;20172;-93
2022/08/26 05:44:09;;;;;;;622.27;357.87;;;23.70;99.90;;;;;;5095884;28;20171;-93
2022/08/26 05:46:36;;;;;;;21.53;18.23;;;23.80;99.90;;;;;;5077196;28;20421;-92
2022/08/26 05:49:03;;;;;;;32.40;21.17;;;23.80;99.90;;;;;;5076588;28;20494;-94
2022/08/26 05:51:30;;;;;;;14.60;8.70;;;23.90;99.90;;;;;;5077592;28;20419;-93
2022/08/26 05:54:01;;;;;;;9.80;6.53;;;24.00;99.90;;;;;;5095833;28;20543;-94
2022/08/26 05:56:27;;;;;;;13.33;6.13;;;24.00;99.90;;;;;;5092950;28;20799;-93
2022/08/26 05:58:55;;;;;;;11.70;5.60;;;24.00;99.90;;;;;;5079879;28;20438;-93
2022/08/26 06:01:26;;;;;;;10.20;5.67;;;24.10;99.90;;;;;;5078002;28;20420;-93
2022/08/26 06:03:56;;;;;;;10.50;4.80;;;24.10;99.90;;;;;;5100788;28;20494;-93
2022/08/26 06:06:25;;;;;;;13.00;5.97;;;24.10;99.90;;;;;;5076780;28;20491;-93
2022/08/26 06:08:51;;;;;;;14.27;6.20;;;24.20;99.90;;;;;;5078024;28;20435;-93
2022/08/26 06:11:19;;;;;;;9.80;5.60;;;24.20;99.90;;;;;;5075066;28;20414;-93
2022/08/26 06:13:45;;;;;;;9.10;6.10;;;24.30;99.90;;;;;;5099360;28;20502;-93
2022/08/26 06:16:13;;;;;;;7.07;6.10;;;24.30;99.90;;;;;;5094232;28;20493;-93
2022/08/26 06:18:42;;;;;;;8.00;5.37;;;24.40;99.90;;;;;;5093347;28;20928;-93
2022/08/26 06:21:18;;;;;;;11.90;6.83;;;24.50;99.90;;;;;;5077732;28;20959;-93
2022/08/26 06:26:31;;;;;;;11.30;6.17;;;24.60;99.90;;;;;;5103383;28;20438;-94
2022/08/26 06:28:57;;;;;;;9.90;6.07;;;24.60;99.90;;;;;;5072767;28;20496;-94
2022/08/26 06:31:24;;;;;;;14.17;6.20;;;24.70;99.90;;;;;;5074904;28;20429;-92
2022/08/26 06:33:50;;;;;;;13.43;7.10;;;24.80;99.90;;;;;;5084183;28;20510;-94
2022/08/26 06:36:24;;;;;;;17.57;7.27;;;24.80;99.90;;;;;;5075049;28;20428;-94
2022/08/26 06:38:50;;;;;;;11.50;6.57;;;24.90;99.90;;;;;;5081128;28;20443;-93
2022/08/26 06:41:17;;;;;;;13.90;6.40;;;25.00;99.90;;;;;;5093262;28;20779;-94
2022/08/26 06:43:43;;;;;;;10.93;6.97;;;25.10;99.90;;;;;;5092998;28;20435;-94
2022/08/26 06:46:12;;;;;;;14.00;7.30;;;25.20;99.90;;;;;;5069441;28;20448;-94
2022/08/26 06:48:38;;;;;;;14.30;8.47;;;25.20;99.90;;;;;;5073344;28;20444;-93
2022/08/26 06:51:13;;;;;;;8.90;6.73;;;25.30;99.90;;;;;;5074188;28;20469;-93
2022/08/26 06:53:40;;;;;;;8.20;6.20;;;25.30;99.90;;;;;;5070296;28;20710;-92
2022/08/26 06:56:09;;;;;;;13.80;6.20;;;25.40;99.90;;;;;;5069951;28;20445;-93
2022/08/26 06:58:36;;;;;;;13.03;7.53;;;25.50;99.90;;;;;;5075221;28;20901;-93
2022/08/26 07:01:02;;;;;;;9.73;6.67;;;25.50;99.90;;;;;;5087095;28;20948;-93
2022/08/26 07:03:28;;;;;;;9.00;6.80;;;25.60;99.90;;;;;;5088848;28;20785;-93
2022/08/26 07:06:01;;;;;;;8.23;7.17;;;25.60;99.90;;;;;;5072397;28;20442;-93
2022/08/26 07:08:27;;;;;;;10.50;6.23;;;25.70;99.90;;;;;;5067467;28;20262;-93
2022/08/26 07:10:53;;;;;;;12.10;6.30;;;25.80;99.90;;;;;;5077322;28;20501;-93
2022/08/26 07:13:18;;;;;;;10.70;5.80;;;25.80;99.90;;;;;;5077125;28;20249;-93
2022/08/26 07:15:44;;;;;;;9.70;6.20;;;25.90;99.90;;;;;;5072791;28;20272;-93
2022/08/26 07:18:09;;;;;;;9.00;7.03;;;26.00;99.90;;;;;;5075463;28;20189;-93
2022/08/26 07:20:39;;;;;;;10.13;5.83;;;26.00;99.90;;;;;;5072829;28;20205;-93
2022/08/26 07:23:08;;;;;;;10.53;5.17;;;26.10;99.90;;;;;;5072264;28;20189;-93
2022/08/26 07:25:38;;;;;;;8.30;5.87;;;26.20;99.90;;;;;;5085900;28;20429;-93
2022/08/26 07:28:04;;;;;;;32.00;22.57;;;26.20;99.90;;;;;;5071053;28;20433;-93
2022/08/26 07:30:30;;;;;;;10.00;5.87;;;26.30;99.90;;;;;;5072214;28;20458;-93
2022/08/26 07:32:57;;;;;;;12.17;6.03;;;26.40;99.90;;;;;;5080873;28;20453;-93
2022/08/26 07:35:23;;;;;;;9.33;6.63;;;26.40;99.90;;;;;;5076213;28;20290;-93
2022/08/26 07:37:49;;;;;;;13.43;5.73;;;26.50;99.90;;;;;;5072674;28;20479;-94
2022/08/26 07:40:15;;;;;;;7.40;5.23;;;26.60;99.90;;;;;;5074111;28;20437;-93
2022/08/26 07:42:40;;;;;;;7.60;5.90;;;26.70;99.90;;;;;;5077186;28;20189;-93
2022/08/26 07:45:06;;;;;;;13.50;5.83;;;26.80;99.90;;;;;;5057836;28;20550;-93
2022/08/26 07:47:32;;;;;;;11.10;5.53;;;26.80;99.90;;;;;;5075508;28;20263;-94
2022/08/26 07:49:58;;;;;;;11.23;6.13;;;26.90;99.90;;;;;;5074913;28;20469;-93
2022/08/26 07:52:26;;;;;;;13.20;6.37;;;27.00;99.90;;;;;;5074846;28;20202;-93
2022/08/26 07:54:55;;;;;;;12.93;5.70;;;27.10;99.90;;;;;;5074743;28;20216;-93
2022/08/26 07:57:20;;;;;;;6.73;5.77;;;27.20;99.90;;;;;;5080329;28;20418;-93
2022/08/26 07:59:46;;;;;;;11.90;5.17;;;27.20;99.90;;;;;;5082100;28;20433;-93
2022/08/26 08:02:12;;;;;;;17.33;5.60;;;27.30;99.90;;;;;;5072225;28;20190;-93
2022/08/26 08:04:37;;;;;;;9.37;5.93;;;27.40;99.90;;;;;;5089941;28;20205;-94
2022/08/26 08:07:05;;;;;;;9.13;5.50;;;27.50;99.90;;;;;;5079646;28;20243;-93
2022/08/26 08:09:31;;;;;;;13.57;5.73;;;27.50;99.90;;;;;;5077120;28;20205;-94
2022/08/26 08:11:57;;;;;;;7.40;6.10;;;27.70;99.90;;;;;;5069392;28;20469;-93
2022/08/26 08:14:23;;;;;;;6.60;5.30;;;27.80;99.90;;;;;;5074151;28;20254;-94
2022/08/26 08:16:49;;;;;;;9.00;5.27;;;27.90;99.90;;;;;;5074175;28;20635;-93
2022/08/26 08:19:14;;;;;;;12.07;5.43;;;28.00;99.90;;;;;;5073745;28;20212;-93
2022/08/26 08:21:41;;;;;;;9.87;5.40;;;28.10;99.90;;;;;;5073694;28;20474;-93
2022/08/26 08:24:07;;;;;;;13.93;5.10;;;28.20;99.90;;;;;;5071869;28;20254;-93
2022/08/26 08:26:34;;;;;;;12.37;5.17;;;28.30;99.90;;;;;;5078538;28;20786;-93
2022/08/26 08:28:59;;;;;;;12.60;5.30;;;28.40;99.90;;;;;;5078148;28;20190;-92
2022/08/26 08:31:29;;;;;;;11.07;5.13;;;28.50;99.90;;;;;;5070098;28;20431;-93
2022/08/26 08:33:54;;;;;;;10.53;5.17;;;28.60;99.90;;;;;;5076317;28;20464;-94
2022/08/26 08:36:21;;;;;;;6.60;5.00;;;28.80;99.90;;;;;;5077480;28;20401;-92
2022/08/26 08:38:47;;;;;;;7.30;4.80;;;28.90;99.90;;;;;;5068109;28;20200;-93
2022/08/26 08:41:35;;;;;;;8.67;5.80;;;29.00;99.90;;;;;;5067987;28;20424;-93
2022/08/26 08:44:01;;;;;;;11.50;4.97;;;29.10;99.90;;;;;;5087670;28;20192;-93
2022/08/26 08:46:28;;;;;;;12.07;5.70;;;29.20;99.90;;;;;;5073169;28;20423;-94
2022/08/26 08:48:58;;;;;;;8.20;4.87;;;29.20;99.90;;;;;;5073577;28;20184;-94
2022/08/26 08:51:57;;;;;;;9.27;5.03;;;29.30;99.90;;;;;;5079612;28;20933;-93
2022/08/26 08:54:25;;;;;;;7.20;5.30;;;29.50;99.90;;;;;;5076821;28;21036;-93
2022/08/26 08:56:58;;;;;;;17.87;5.80;;;30.00;99.90;;;;;;5097506;28;20490;-94
2022/08/26 08:59:34;;;;;;;6.07;5.47;;;30.60;99.90;;;;;;5076434;28;21068;-94
2022/08/26 09:02:18;;;;;;;10.97;4.90;;;31.00;99.90;;;;;;5070803;28;20871;-93
2022/08/26 09:05:27;;;;;;;6.43;4.17;;;31.00;99.90;;;;;;5082152;28;20454;-93
2022/08/26 09:07:56;;;;;;;14.53;4.90;;;31.00;99.90;;;;;;5068947;28;20543;-94
2022/08/26 09:10:40;;;;;;;6.53;5.10;;;31.00;99.90;;;;;;5072034;28;20975;-93
2022/08/26 09:13:09;;;;;;;14.90;5.37;;;30.80;99.90;;;;;;5072706;28;20435;-94
2022/08/26 09:16:07;;;;;;;12.80;4.80;;;30.80;99.90;;;;;;5090939;28;20460;-93
2022/08/26 09:18:41;;;;;;;7.40;4.77;;;30.80;99.90;;;;;;5090613;28;20444;-94
2022/08/26 09:21:10;;;;;;;6.77;5.00;;;30.80;99.90;;;;;;5074614;28;20479;-94
2022/08/26 09:23:39;;;;;;;109.03;72.07;;;30.70;99.90;;;;;;5069676;28;20745;-93
2022/08/26 09:26:44;;;;;;;35.67;23.60;;;30.70;99.90;;;;;;5067871;28;20456;-93
2022/08/26 09:29:33;;;;;;;8.27;5.67;;;30.70;99.90;;;;;;5051899;28;20789;-93
2022/08/26 09:32:20;;;;;;;9.73;4.97;;;30.70;99.90;;;;;;5080866;28;20443;-94
2022/08/26 09:35:06;;;;;;;6.90;5.00;;;30.70;99.90;;;;;;5067897;28;20727;-93
2022/08/26 09:37:42;;;;;;;16.07;4.80;;;30.70;99.90;;;;;;5069550;28;20490;-93
2022/08/26 09:40:21;;;;;;;6.63;4.90;;;30.80;99.90;;;;;;5071634;28;20463;-94
2022/08/26 09:43:03;;;;;;;14.33;4.30;;;30.70;99.90;;;;;;5076197;28;20506;-93
2022/08/26 09:45:29;;;;;;;9.73;5.20;;;30.60;99.90;;;;;;5082728;28;20874;-93
2022/08/26 09:47:56;;;;;;;7.17;4.27;;;30.70;99.90;;;;;;5086154;28;20508;-94
2022/08/26 09:50:50;;;;;;;10.37;4.30;;;30.70;99.90;;;;;;5072579;28;20263;-94
2022/08/26 09:53:20;;;;;;;6.80;4.10;;;30.80;99.30;;;;;;5090738;28;20524;-93
2022/08/26 09:55:48;;;;;;;8.73;4.23;;;30.80;98.90;;;;;;5088217;28;20459;-94
2022/08/26 09:58:30;;;;;;;183.17;106.97;;;30.80;98.50;;;;;;5077690;28;20444;-93
2022/08/26 10:01:00;;;;;;;74.87;44.00;;;30.70;99.90;;;;;;5071637;28;20451;-94
2022/08/26 10:03:29;;;;;;;9.73;5.00;;;30.60;99.90;;;;;;5096142;28;20445;-93
2022/08/26 10:06:02;;;;;;;12.37;6.30;;;30.60;99.90;;;;;;5091719;28;20449;-93
2022/08/26 10:08:35;;;;;;;6.30;4.07;;;30.60;99.90;;;;;;5069692;28;20976;-93
2022/08/26 10:11:06;;;;;;;10.00;4.70;;;30.60;99.90;;;;;;5065061;28;20455;-95
2022/08/26 10:13:42;;;;;;;5.03;4.27;;;30.70;99.50;;;;;;5069106;28;20445;-94
2022/08/26 10:16:16;;;;;;;3.70;3.03;;;30.70;99.90;;;;;;5067770;28;20871;-93
2022/08/26 10:19:06;;;;;;;5.43;4.30;;;30.70;99.90;;;;;;5074680;28;20454;-93
2022/08/26 10:21:57;;;;;;;6.70;4.10;;;30.60;99.90;;;;;;5083686;28;20428;-94
2022/08/26 10:24:39;;;;;;;6.40;4.03;;;30.70;97.80;;;;;;5069988;28;20462;-95
2022/08/26 10:27:18;;;;;;;6.23;4.00;;;30.80;97.10;;;;;;5065335;28;20786;-93
2022/08/26 10:29:51;;;;;;;5.60;3.43;;;30.90;96.50;;;;;;5083798;28;20439;-95
2022/08/26 10:32:29;;;;;;;6.63;3.87;;;30.90;98.30;;;;;;5066730;28;21446;-94
2022/08/26 10:34:55;;;;;;;4.80;3.93;;;30.90;96.10;;;;;;5070041;28;20953;-93
2022/08/26 10:37:29;;;;;;;16.70;5.83;;;31.00;95.10;;;;;;5066315;28;20433;-93
2022/08/26 10:40:06;;;;;;;8.70;4.00;;;31.10;96.60;;;;;;5087168;28;20944;-94
2022/08/26 10:42:51;;;;;;;9.13;4.13;;;31.00;98.30;;;;;;5067871;28;20460;-94
2022/08/26 10:45:20;;;;;;;9.37;3.80;;;31.00;97.50;;;;;;5068745;28;20452;-94
2022/08/26 10:47:53;;;;;;;8.70;4.27;;;31.20;96.90;;;;;;5076899;28;20435;-93
2022/08/26 10:50:21;;;;;;;5.70;3.80;;;31.20;97.60;;;;;;5085741;28;20483;-93
2022/08/26 10:53:30;;;;;;;5.60;3.90;;;31.10;98.20;;;;;;5073247;28;20436;-93
2022/08/26 10:56:10;;;;;;;10.20;4.40;;;31.20;98.40;;;;;;5090830;28;20464;-93
2022/08/26 10:59:07;;;;;;;8.83;3.60;;;31.20;95.70;;;;;;5078437;28;20487;-93
2022/08/26 11:01:42;;;;;;;10.50;4.10;;;31.20;98.20;;;;;;5085216;28;20813;-93
2022/08/26 11:04:20;;;;;;;10.57;4.53;;;31.10;98.40;;;;;;5079407;28;20416;-95
2022/08/26 11:06:46;;;;;;;14.07;4.10;;;31.10;98.40;;;;;;5076905;28;20534;-93
2022/08/26 11:09:43;;;;;;;4.67;3.97;;;31.10;98.50;;;;;;5097085;28;20520;-95
2022/08/26 11:12:08;;;;;;;5.40;4.03;;;31.20;96.00;;;;;;5071112;28;20337;-94
2022/08/26 11:14:35;;;;;;;6.43;3.77;;;31.20;97.50;;;;;;5074477;28;20562;-93
2022/08/26 11:17:01;;;;;;;6.90;3.60;;;31.10;98.30;;;;;;5075941;28;20283;-95
2022/08/26 11:19:40;;;;;;;4.90;3.60;;;31.00;96.60;;;;;;5078047;28;20493;-94
2022/08/26 11:22:08;;;;;;;4.80;3.87;;;31.00;96.80;;;;;;5081563;28;20804;-93
2022/08/26 11:24:45;;;;;;;156.43;109.07;;;31.10;93.90;;;;;;5074517;28;21015;-94
2022/08/26 11:27:34;;;;;;;16.50;7.90;;;31.20;93.70;;;;;;5073086;28;20452;-93
2022/08/26 11:30:06;;;;;;;5.10;4.50;;;31.30;92.20;;;;;;5075720;28;20442;-94
2022/08/26 11:32:40;;;;;;;9.57;4.10;;;31.30;92.80;;;;;;5081055;28;20409;-93
2022/08/26 11:35:12;;;;;;;6.47;3.90;;;31.40;92.30;;;;;;5076336;28;20534;-94
2022/08/26 11:37:49;;;;;;;3.97;3.57;;;31.40;92.50;;;;;;5074584;28;20548;-94
2022/08/26 11:40:19;;;;;;;6.63;4.17;;;31.50;93.10;;;;;;5100265;28;20454;-94
2022/08/26 11:42:51;;;;;;;4.57;4.00;;;31.50;94.00;;;;;;5078191;28;20437;-94
2022/08/26 11:45:41;;;;;;;8.00;4.17;;;31.50;94.00;;;;;;5074365;28;20827;-95
2022/08/26 11:48:17;;;;;;;7.20;3.60;;;31.50;95.70;;;;;;5074108;28;20448;-93
2022/08/26 11:51:01;;;;;;;6.30;4.00;;;31.40;95.90;;;;;;5074378;28;20576;-93
2022/08/26 11:53:29;;;;;;;9.83;4.13;;;31.40;96.20;;;;;;5076222;28;20444;-93
2022/08/26 11:55:57;;;;;;;6.33;4.73;;;31.40;96.30;;;;;;5077167;28;20452;-93
2022/08/26 11:58:25;;;;;;;5.53;4.07;;;31.40;95.40;;;;;;5077360;28;20921;-94
2022/08/26 12:00:56;;;;;;;6.43;4.40;;;31.50;95.30;;;;;;5076929;28;20436;-93
2022/08/26 12:03:34;;;;;;;6.20;3.50;;;31.50;95.90;;;;;;5095936;28;20444;-94
2022/08/26 12:06:00;;;;;;;10.60;4.97;;;31.50;94.70;;;;;;5099678;28;20789;-94
2022/08/26 12:08:29;;;;;;;6.00;4.70;;;31.40;96.40;;;;;;5079009;28;20564;-94
2022/08/26 12:11:08;;;;;;;7.80;3.60;;;31.40;96.40;;;;;;5080786;28;20474;-94
2022/08/26 12:13:37;;;;;;;5.20;3.63;;;31.40;96.70;;;;;;5089063;28;20485;-94
2022/08/26 12:16:04;;;;;;;4.90;3.97;;;31.30;96.70;;;;;;5108742;28;20541;-93
2022/08/26 12:18:33;;;;;;;7.27;4.10;;;31.30;96.80;;;;;;5085589;28;20485;-94
2022/08/26 12:21:08;;;;;;;5.03;3.77;;;31.30;96.90;;;;;;5079493;28;20481;-93
2022/08/26 12:23:34;;;;;;;7.30;3.93;;;31.30;96.80;;;;;;5078963;28;20538;-94
2022/08/26 12:26:11;;;;;;;11.03;4.20;;;31.40;93.80;;;;;;5096631;28;20456;-93
2022/08/26 12:28:46;;;;;;;8.10;4.30;;;31.50;94.50;;;;;;5077992;28;20188;-93
2022/08/26 12:31:24;;;;;;;5.00;4.47;;;31.50;94.30;;;;;;5078752;28;20452;-93
2022/08/26 12:33:50;;;;;;;7.40;5.43;;;31.60;93.10;;;;;;5096053;28;20471;-94
2022/08/26 12:36:22;;;;;;;8.93;4.30;;;31.60;94.80;;;;;;5079298;28;20487;-93
2022/08/26 12:38:48;;;;;;;5.50;4.90;;;31.60;95.40;;;;;;5080627;28;20429;-93
2022/08/26 12:41:38;;;;;;;5.03;4.53;;;31.60;95.60;;;;;;5095025;28;20448;-92
2022/08/26 12:44:03;;;;;;;6.17;3.93;;;31.60;95.70;;;;;;5082497;28;20421;-93
2022/08/26 12:46:29;;;;;;;8.47;4.10;;;31.60;95.80;;;;;;5082695;28;20442;-91
2022/08/26 12:48:59;;;;;;;6.70;4.17;;;31.60;95.80;;;;;;5080717;28;20192;-93
2022/08/26 12:51:29;;;;;;;4.40;4.00;;;31.60;95.90;;;;;;5078404;28;20591;-93
2022/08/26 12:53:55;;;;;;;6.20;4.30;;;31.50;96.00;;;;;;5083337;28;20459;-93
2022/08/26 12:56:28;;;;;;;10.33;3.97;;;31.50;95.90;;;;;;5103664;28;20467;-93
2022/08/26 12:59:19;;;;;;;6.40;4.00;;;31.60;94.70;;;;;;5095386;28;20432;-94
2022/08/26 13:01:45;;;;;;;5.93;4.00;;;31.60;94.60;;;;;;5096148;28;20766;-94